Terminal Aerodrome Forecast
Issued by NWS

Home | Current Version | Previous Version | Text Only | Print | Product List | Glossary On
Versions: 1 2 3 4 5 6 7 8 9 10 11 12 13 14 15
000
FTUS46 KSGX 201720
TAFSNA
TAF
KSNA 201720Z 2018/2118 20006KT P6SM BKN025
     FM201900 22009KT P6SM SCT028
     FM210200 VRB06KT P6SM SCT020
     FM210600 VRB04KT P6SM OVC020=

USA.gov is the U.S. government's official web portal to all federal, state and local government web resources and services.